createdAt,value
2017-05-03T00:00:55.177Z,99.36
2017-05-03T00:01:56.611Z,98.98
2017-05-03T00:02:58.032Z,99.27
2017-05-03T00:03:59.454Z,99.27
2017-05-03T00:05:00.884Z,99.17
2017-05-03T00:06:02.303Z,99.27
2017-05-03T00:07:03.728Z,99.08
2017-05-03T00:08:05.156Z,98.79
2017-05-03T00:09:06.579Z,98.88
2017-05-03T00:10:08.002Z,98.98
2017-05-03T00:11:09.429Z,99.27
2017-05-03T00:12:10.844Z,99.27
2017-05-03T00:13:12.276Z,98.69
2017-05-03T00:14:13.701Z,98.41
2017-05-03T00:15:15.124Z,98.50
2017-05-03T00:16:16.549Z,98.79
2017-05-03T00:17:17.974Z,99.65
2017-05-03T00:18:19.399Z,99.93
2017-05-03T00:19:20.831Z,99.27
2017-05-03T00:20:22.270Z,98.88
2017-05-03T00:21:23.676Z,99.27
2017-05-03T00:22:25.100Z,98.69
2017-05-03T00:23:26.522Z,98.50
2017-05-03T00:24:27.940Z,98.60
2017-05-03T00:25:29.357Z,99.08
2017-05-03T00:26:30.778Z,99.17
2017-05-03T00:27:32.204Z,98.50
2017-05-03T00:28:33.632Z,98.03
2017-05-03T00:29:35.051Z,99.27
2017-05-03T00:30:36.479Z,99.08
2017-05-03T00:31:37.923Z,98.50
2017-05-03T00:32:39.335Z,98.50
2017-05-03T00:33:40.758Z,99.46
2017-05-03T00:34:42.185Z,99.99
2017-05-03T00:35:43.610Z,99.46
2017-05-03T00:36:45.041Z,98.88
2017-05-03T00:37:46.463Z,99.17
2017-05-03T00:38:47.886Z,98.55
2017-05-03T00:39:49.310Z,98.27
2017-05-03T00:40:50.744Z,97.70
2017-05-03T00:41:52.162Z,98.46
2017-05-03T00:42:53.592Z,97.93
2017-05-03T00:43:55.016Z,98.69
2017-05-03T00:44:56.436Z,98.79
2017-05-03T00:45:57.855Z,98.79
2017-05-03T00:46:59.275Z,98.60
2017-05-03T00:48:00.697Z,98.50
2017-05-03T00:49:02.111Z,98.88
2017-05-03T00:50:03.536Z,98.50
2017-05-03T00:51:04.953Z,99.55
2017-05-03T00:52:06.378Z,98.60
2017-05-03T00:53:07.798Z,98.18
2017-05-03T00:54:09.219Z,98.18
2017-05-03T00:55:10.643Z,98.18
2017-05-03T00:56:12.069Z,98.22
2017-05-03T00:57:13.488Z,99.46
2017-05-03T00:58:14.938Z,99.17
2017-05-03T00:59:16.358Z,98.74
2017-05-03T01:00:17.775Z,98.36
2017-05-03T01:01:19.206Z,97.79
2017-05-03T01:02:20.627Z,97.70
2017-05-03T01:03:22.051Z,97.89
2017-05-03T01:04:23.469Z,98.36
2017-05-03T01:05:24.891Z,98.46
2017-05-03T01:06:26.325Z,98.41
2017-05-03T01:07:27.739Z,98.46
2017-05-03T01:08:29.168Z,97.89
2017-05-03T01:09:30.588Z,98.65
2017-05-03T01:10:32.014Z,98.74
2017-05-03T01:11:33.436Z,97.70
2017-05-03T01:12:34.862Z,97.70
2017-05-03T01:13:36.281Z,97.60
2017-05-03T01:14:37.715Z,97.60
2017-05-03T01:15:39.140Z,97.51
2017-05-03T01:16:40.567Z,97.99
2017-05-03T01:17:41.987Z,97.70
2017-05-03T01:18:43.405Z,98.32
2017-05-03T01:19:44.837Z,97.41
2017-05-03T01:20:46.261Z,97.22
2017-05-03T01:21:47.677Z,97.89
2017-05-03T01:22:49.104Z,97.51
2017-05-03T01:23:50.520Z,97.70
2017-05-03T01:24:51.942Z,97.79
2017-05-03T01:25:53.365Z,97.65
2017-05-03T01:26:54.786Z,98.32
2017-05-03T01:27:56.204Z,98.55
2017-05-03T01:28:57.677Z,97.51
2017-05-03T01:29:59.052Z,97.99
2017-05-03T01:31:00.477Z,97.22
2017-05-03T01:32:01.900Z,97.60
2017-05-03T01:33:03.329Z,98.08
2017-05-03T01:34:04.750Z,97.70
2017-05-03T01:35:06.170Z,97.89
2017-05-03T01:36:07.589Z,97.79
2017-05-03T01:37:09.015Z,98.55
2017-05-03T01:38:10.437Z,98.46
2017-05-03T01:39:11.861Z,98.08
2017-05-03T01:40:13.281Z,97.22
2017-05-03T01:41:14.699Z,97.31
2017-05-03T01:42:16.120Z,97.13
2017-05-03T01:43:17.547Z,96.27
2017-05-03T01:44:18.978Z,97.51
2017-05-03T01:45:20.397Z,96.84
2017-05-03T01:46:21.838Z,96.84
2017-05-03T01:47:23.352Z,96.94
2017-05-03T01:48:24.771Z,97.79
2017-05-03T01:49:26.190Z,97.31
2017-05-03T01:50:27.620Z,97.89
2017-05-03T01:51:29.050Z,97.31
2017-05-03T01:52:30.472Z,96.84
2017-05-03T01:53:31.896Z,97.51
2017-05-03T01:54:33.328Z,97.89
2017-05-03T01:55:34.754Z,97.70
2017-05-03T01:56:36.179Z,97.60
2017-05-03T01:57:37.599Z,97.51
2017-05-03T01:58:39.025Z,97.03
2017-05-03T01:59:40.449Z,97.51
2017-05-03T02:00:41.881Z,97.89
2017-05-03T02:01:43.297Z,97.89
2017-05-03T02:02:44.715Z,97.70
2017-05-03T02:03:46.135Z,97.03
2017-05-03T02:04:47.571Z,97.31
2017-05-03T02:05:48.992Z,97.51
2017-05-03T02:06:50.417Z,97.79
2017-05-03T02:07:51.838Z,98.55
2017-05-03T02:08:53.257Z,97.99
2017-05-03T02:09:54.678Z,98.08
2017-05-03T02:10:56.099Z,98.08
2017-05-03T02:11:57.515Z,97.22
2017-05-03T02:12:58.942Z,97.13
2017-05-03T02:14:00.358Z,96.84
2017-05-03T02:15:01.787Z,97.70
2017-05-03T02:16:03.210Z,97.60
2017-05-03T02:17:04.634Z,98.74
2017-05-03T02:18:06.057Z,98.55
2017-05-03T02:19:07.485Z,97.89
2017-05-03T02:20:08.904Z,97.60
2017-05-03T02:21:10.328Z,97.60
2017-05-03T02:22:11.747Z,97.70
2017-05-03T02:23:13.166Z,97.60
2017-05-03T02:24:14.589Z,97.70
2017-05-03T02:25:16.013Z,97.89
2017-05-03T02:26:17.437Z,97.03
2017-05-03T02:27:18.860Z,98.08
2017-05-03T02:28:20.291Z,97.60
2017-05-03T02:29:21.713Z,97.31
2017-05-03T02:30:23.141Z,97.03
2017-05-03T02:31:24.563Z,96.94
2017-05-03T02:32:26.001Z,97.31
2017-05-03T02:33:27.415Z,96.94
2017-05-03T02:34:29.358Z,96.17
2017-05-03T02:35:30.776Z,96.17
2017-05-03T02:36:32.196Z,97.89
2017-05-03T02:37:33.619Z,97.65
2017-05-03T02:38:35.054Z,98.79
2017-05-03T02:39:36.478Z,98.84
2017-05-03T02:40:37.902Z,98.55
2017-05-03T02:41:39.330Z,97.70
2017-05-03T02:42:40.754Z,97.60
2017-05-03T02:43:42.176Z,97.84
2017-05-03T02:44:43.597Z,97.70
2017-05-03T02:45:45.017Z,97.89
2017-05-03T02:46:46.445Z,97.13
2017-05-03T02:47:47.872Z,96.27
2017-05-03T02:48:49.298Z,96.27
2017-05-03T02:49:50.727Z,96.32
2017-05-03T02:50:52.152Z,96.03
2017-05-03T02:51:53.576Z,96.12
2017-05-03T02:52:54.998Z,96.17
2017-05-03T02:53:56.419Z,96.27
2017-05-03T02:54:57.838Z,96.27
2017-05-03T02:55:59.257Z,96.17
2017-05-03T02:57:00.676Z,96.51
2017-05-03T02:58:02.101Z,96.22
2017-05-03T02:59:03.537Z,96.27
2017-05-03T03:00:04.959Z,96.17
2017-05-03T03:01:06.387Z,96.27
2017-05-03T03:02:07.815Z,96.41
2017-05-03T03:03:09.254Z,95.56
2017-05-03T03:04:10.669Z,96.65
2017-05-03T03:05:12.098Z,96.84
2017-05-03T03:06:13.541Z,97.13
2017-05-03T03:07:14.993Z,97.31
2017-05-03T03:08:16.397Z,96.84
2017-05-03T03:09:17.822Z,96.22
2017-05-03T03:10:19.251Z,96.17
2017-05-03T03:11:20.671Z,96.65
2017-05-03T03:12:22.090Z,96.22
2017-05-03T03:13:23.514Z,96.36
2017-05-03T03:14:24.936Z,96.84
2017-05-03T03:15:26.359Z,97.31
2017-05-03T03:16:27.771Z,96.94
2017-05-03T03:17:29.235Z,96.94
2017-05-03T03:18:30.621Z,96.17
2017-05-03T03:19:32.045Z,96.12
2017-05-03T03:20:33.461Z,96.94
2017-05-03T03:21:34.882Z,96.32
2017-05-03T03:22:36.302Z,96.22
2017-05-03T03:23:37.722Z,96.12
2017-05-03T03:24:39.152Z,95.84
2017-05-03T03:25:40.574Z,96.08
2017-05-03T03:26:41.991Z,95.84
2017-05-03T03:27:43.418Z,95.84
2017-05-03T03:28:44.849Z,96.08
2017-05-03T03:29:46.261Z,96.94
2017-05-03T03:30:47.690Z,96.32
2017-05-03T03:31:49.117Z,96.32
2017-05-03T03:32:50.546Z,96.94
2017-05-03T03:33:52.010Z,97.22
2017-05-03T03:34:53.445Z,97.46
2017-05-03T03:35:54.864Z,96.41
2017-05-03T03:36:56.288Z,96.60
2017-05-03T03:37:57.715Z,96.51
2017-05-03T03:38:59.143Z,96.17
2017-05-03T03:40:00.619Z,96.12
2017-05-03T03:41:02.082Z,96.27
2017-05-03T03:42:03.508Z,96.84
2017-05-03T03:43:04.928Z,96.84
2017-05-03T03:44:06.359Z,97.51
2017-05-03T03:45:07.776Z,97.31
2017-05-03T03:46:09.201Z,97.41
2017-05-03T03:47:10.617Z,97.13
2017-05-03T03:48:12.039Z,97.08
2017-05-03T03:49:13.461Z,96.32
2017-05-03T03:50:14.882Z,96.22
2017-05-03T03:51:16.307Z,96.27
2017-05-03T03:52:17.733Z,96.27
2017-05-03T03:53:19.157Z,96.75
2017-05-03T03:54:20.581Z,95.84
2017-05-03T03:55:22.004Z,96.41
2017-05-03T03:56:23.430Z,96.51
2017-05-03T03:57:24.846Z,96.70
2017-05-03T03:58:26.281Z,96.65
2017-05-03T03:59:27.703Z,96.32
2017-05-03T04:00:29.142Z,96.32
2017-05-03T04:01:30.572Z,96.60
2017-05-03T04:02:31.995Z,96.08
2017-05-03T04:03:33.433Z,96.12
2017-05-03T04:04:34.862Z,96.17
2017-05-03T04:05:36.286Z,96.84
2017-05-03T04:06:37.793Z,97.08
2017-05-03T04:07:39.221Z,96.70
2017-05-03T04:08:40.641Z,96.03
2017-05-03T04:09:42.063Z,96.22
2017-05-03T04:10:43.515Z,95.94
2017-05-03T04:11:44.982Z,95.65
2017-05-03T04:12:46.405Z,95.27
2017-05-03T04:13:47.827Z,95.36
2017-05-03T04:14:49.341Z,95.46
2017-05-03T04:15:50.769Z,95.65
2017-05-03T04:16:52.190Z,95.84
2017-05-03T04:17:53.617Z,95.46
2017-05-03T04:18:55.096Z,95.27
2017-05-03T04:19:56.518Z,96.03
2017-05-03T04:20:57.946Z,96.03
2017-05-03T04:21:59.371Z,96.22
2017-05-03T04:23:00.832Z,96.41
2017-05-03T04:24:02.219Z,96.60
2017-05-03T04:25:03.670Z,97.36
2017-05-03T04:26:05.164Z,97.08
2017-05-03T04:27:06.599Z,97.17
2017-05-03T04:28:08.021Z,96.03
2017-05-03T04:29:09.440Z,94.70
2017-05-03T04:30:10.863Z,94.60
2017-05-03T04:31:12.284Z,94.79
2017-05-03T04:32:13.708Z,94.70
2017-05-03T04:33:15.139Z,95.46
2017-05-03T04:34:16.566Z,95.94
2017-05-03T04:35:17.996Z,97.22
2017-05-03T04:36:19.421Z,97.08
2017-05-03T04:37:20.844Z,95.84
2017-05-03T04:38:22.272Z,95.08
2017-05-03T04:39:23.699Z,95.46
2017-05-03T04:40:25.124Z,96.22
2017-05-03T04:41:26.560Z,96.22
2017-05-03T04:42:27.988Z,95.84
2017-05-03T04:43:29.404Z,96.22
2017-05-03T04:44:30.839Z,95.36
2017-05-03T04:45:32.258Z,95.84
2017-05-03T04:46:33.680Z,95.75
2017-05-03T04:47:35.121Z,95.65
2017-05-03T04:48:36.546Z,95.84
2017-05-03T04:49:37.967Z,95.65
2017-05-03T04:50:39.399Z,96.03
2017-05-03T04:51:40.831Z,96.12
2017-05-03T04:52:42.248Z,96.60
2017-05-03T04:53:43.672Z,95.32
2017-05-03T04:54:45.099Z,94.08
2017-05-03T04:55:46.529Z,94.17
2017-05-03T04:56:47.945Z,94.65
2017-05-03T04:57:49.374Z,93.79
2017-05-03T04:58:50.798Z,93.51
2017-05-03T04:59:52.220Z,94.37
2017-05-03T05:00:53.651Z,94.37
2017-05-03T05:01:55.072Z,94.37
2017-05-03T05:02:56.499Z,94.65
2017-05-03T05:03:57.931Z,95.12
2017-05-03T05:04:59.368Z,94.46
2017-05-03T05:06:00.809Z,95.22
2017-05-03T05:07:02.227Z,94.93
2017-05-03T05:08:03.668Z,95.32
2017-05-03T05:09:05.089Z,95.32
2017-05-03T05:10:06.519Z,94.93
2017-05-03T05:11:07.952Z,93.60
2017-05-03T05:12:09.373Z,92.55
2017-05-03T05:13:10.798Z,94.03
2017-05-03T05:14:12.227Z,95.79
2017-05-03T05:15:13.654Z,93.98
2017-05-03T05:16:15.077Z,93.22
2017-05-03T05:17:16.509Z,93.32
2017-05-03T05:18:17.929Z,93.51
2017-05-03T05:19:19.363Z,93.65
2017-05-03T05:20:20.804Z,92.79
2017-05-03T05:21:22.234Z,92.98
2017-05-03T05:22:23.671Z,92.79
2017-05-03T05:23:25.100Z,91.93
2017-05-03T05:24:26.528Z,92.84
2017-05-03T05:25:27.949Z,92.84
2017-05-03T05:26:29.377Z,92.98
2017-05-03T05:27:30.800Z,93.60
2017-05-03T05:28:32.224Z,93.51
2017-05-03T05:29:33.654Z,92.32
2017-05-03T05:30:35.088Z,92.65
2017-05-03T05:31:36.525Z,93.70
2017-05-03T05:32:37.964Z,93.51
2017-05-03T05:33:39.392Z,93.22
2017-05-03T05:34:40.831Z,94.65
2017-05-03T05:35:42.253Z,95.65
2017-05-03T05:36:43.684Z,95.84
2017-05-03T05:37:45.122Z,96.98
2017-05-03T05:38:46.544Z,97.08
2017-05-03T05:39:47.980Z,96.32
2017-05-03T05:40:49.409Z,97.08
2017-05-03T05:41:50.838Z,97.08
2017-05-03T05:42:52.271Z,96.51
2017-05-03T05:43:53.696Z,96.89
2017-05-03T05:44:55.123Z,95.94
2017-05-03T05:45:56.551Z,95.79
2017-05-03T05:46:57.973Z,94.70
2017-05-03T05:47:59.406Z,96.98
2017-05-03T05:49:00.828Z,97.94
2017-05-03T05:50:02.266Z,97.65
2017-05-03T05:51:03.685Z,96.89
2017-05-03T05:52:05.109Z,97.27
2017-05-03T05:53:06.534Z,96.36
2017-05-03T05:54:07.960Z,96.98
2017-05-03T05:55:09.385Z,95.94
2017-05-03T05:56:10.812Z,96.32
2017-05-03T05:57:12.241Z,96.36
2017-05-03T05:58:13.667Z,95.98
2017-05-03T05:59:15.095Z,97.13
2017-05-03T06:00:16.521Z,96.17
2017-05-03T06:01:17.949Z,97.03
2017-05-03T06:02:19.378Z,97.65
2017-05-03T06:03:20.801Z,97.84
2017-05-03T06:04:22.223Z,97.79
2017-05-03T06:05:23.645Z,96.79
2017-05-03T06:06:25.066Z,96.89
2017-05-03T06:07:26.488Z,96.51
2017-05-03T06:08:27.910Z,97.27
2017-05-03T06:09:29.337Z,96.46
2017-05-03T06:10:30.774Z,96.36
2017-05-03T06:11:32.200Z,95.46
2017-05-03T06:12:33.635Z,94.65
2017-05-03T06:13:35.068Z,94.98
2017-05-03T06:14:36.494Z,94.17
2017-05-03T06:15:37.921Z,94.74
2017-05-03T06:16:39.352Z,94.74
2017-05-03T06:17:40.783Z,94.17
2017-05-03T06:18:42.223Z,96.08
2017-05-03T06:19:43.661Z,96.17
2017-05-03T06:20:45.090Z,95.46
2017-05-03T06:21:46.516Z,95.84
2017-05-03T06:22:47.953Z,96.03
2017-05-03T06:23:49.398Z,95.36
2017-05-03T06:24:50.819Z,94.98
2017-05-03T06:25:52.245Z,95.65
2017-05-03T06:26:53.677Z,95.17
2017-05-03T06:27:55.100Z,94.98
2017-05-03T06:28:56.527Z,94.89
2017-05-03T06:29:57.967Z,95.27
2017-05-03T06:30:59.394Z,95.46
2017-05-03T06:32:00.822Z,95.65
2017-05-03T06:33:02.244Z,95.36
2017-05-03T06:34:03.682Z,93.98
2017-05-03T06:35:05.133Z,93.65
2017-05-03T06:36:06.563Z,94.13
2017-05-03T06:37:07.993Z,94.51
2017-05-03T06:38:09.424Z,93.84
2017-05-03T06:39:10.851Z,93.84
2017-05-03T06:40:12.290Z,93.55
2017-05-03T06:41:13.727Z,93.93
2017-05-03T06:42:15.153Z,93.65
2017-05-03T06:43:16.585Z,93.84
2017-05-03T06:44:18.013Z,93.55
2017-05-03T06:45:19.437Z,94.89
2017-05-03T06:46:20.875Z,95.27
2017-05-03T06:47:22.301Z,94.70
2017-05-03T06:48:23.746Z,95.46
2017-05-03T06:49:25.171Z,95.41
2017-05-03T06:50:26.605Z,96.17
2017-05-03T06:51:28.034Z,96.32
2017-05-03T06:52:29.458Z,95.84
2017-05-03T06:53:30.883Z,95.56
2017-05-03T06:54:32.314Z,94.22
2017-05-03T06:55:33.742Z,95.94
2017-05-03T06:56:35.172Z,93.70
2017-05-03T06:57:36.597Z,92.08
2017-05-03T06:58:38.023Z,93.12
2017-05-03T06:59:39.448Z,92.74
2017-05-03T07:00:40.885Z,93.32
2017-05-03T07:01:42.306Z,93.37
2017-05-03T07:02:43.730Z,95.75
2017-05-03T07:03:45.164Z,94.51
2017-05-03T07:04:46.593Z,95.22
2017-05-03T07:05:48.025Z,94.89
2017-05-03T07:06:49.477Z,93.84
2017-05-03T07:07:50.902Z,93.37
2017-05-03T07:08:52.334Z,92.98
2017-05-03T07:09:53.761Z,92.13
2017-05-03T07:10:55.192Z,94.79
2017-05-03T07:11:56.617Z,94.13
2017-05-03T07:12:58.041Z,94.51
2017-05-03T07:13:59.472Z,94.79
2017-05-03T07:15:00.899Z,94.89
2017-05-03T07:16:02.326Z,93.46
2017-05-03T07:17:03.750Z,92.98
2017-05-03T07:18:05.189Z,91.84
2017-05-03T07:19:06.618Z,93.27
2017-05-03T07:20:08.050Z,94.03
2017-05-03T07:21:09.476Z,94.22
2017-05-03T07:22:10.903Z,93.65
2017-05-03T07:23:12.329Z,94.51
2017-05-03T07:24:13.762Z,93.98
2017-05-03T07:25:15.199Z,93.98
2017-05-03T07:26:16.628Z,92.27
2017-05-03T07:27:18.058Z,90.55
2017-05-03T07:28:19.485Z,90.93
2017-05-03T07:29:20.925Z,89.03
2017-05-03T07:30:22.349Z,89.40
2017-05-03T07:31:23.781Z,90.45
2017-05-03T07:32:25.203Z,89.12
2017-05-03T07:33:26.637Z,88.78
2017-05-03T07:34:28.067Z,89.36
2017-05-03T07:35:29.504Z,86.30
2017-05-03T07:36:30.940Z,88.21
2017-05-03T07:37:32.375Z,85.64
2017-05-03T07:38:33.824Z,88.78
2017-05-03T07:39:35.260Z,88.40
2017-05-03T07:40:36.691Z,88.31
2017-05-03T07:41:38.116Z,89.89
2017-05-03T07:42:39.552Z,91.22
2017-05-03T07:43:40.983Z,90.93
2017-05-03T07:44:42.427Z,90.26
2017-05-03T07:45:43.852Z,89.40
2017-05-03T07:46:45.282Z,87.21
2017-05-03T07:47:46.711Z,89.12
2017-05-03T07:48:48.131Z,89.40
2017-05-03T07:49:49.578Z,87.12
2017-05-03T07:50:51.165Z,87.40
2017-05-03T07:51:52.592Z,88.12
2017-05-03T07:52:54.028Z,88.78
2017-05-03T07:53:55.460Z,90.41
2017-05-03T07:54:56.888Z,90.03
2017-05-03T07:55:58.321Z,89.74
2017-05-03T07:57:00.539Z,90.88
2017-05-03T07:58:01.962Z,89.54
2017-05-03T07:59:03.393Z,91.17
2017-05-03T08:00:04.820Z,89.36
2017-05-03T08:01:06.251Z,88.78
2017-05-03T08:02:07.685Z,89.07
2017-05-03T08:03:09.108Z,88.98
2017-05-03T08:04:10.537Z,87.35
2017-05-03T08:05:11.969Z,87.35
2017-05-03T08:06:13.406Z,87.07
2017-05-03T08:07:14.847Z,87.07
2017-05-03T08:08:16.274Z,87.74
2017-05-03T08:09:17.705Z,85.87
2017-05-03T08:10:19.133Z,86.06
2017-05-03T08:11:20.557Z,87.02
2017-05-03T08:12:21.996Z,87.40
2017-05-03T08:13:23.422Z,86.06
2017-05-03T08:14:24.856Z,85.87
2017-05-03T08:15:26.288Z,83.67
2017-05-03T08:16:27.716Z,86.16
2017-05-03T08:17:29.141Z,84.72
2017-05-03T08:18:30.572Z,84.72
2017-05-03T08:19:31.999Z,84.72
2017-05-03T08:20:33.429Z,83.87
2017-05-03T08:21:34.867Z,87.21
2017-05-03T08:22:36.296Z,86.63
2017-05-03T08:23:37.723Z,82.63
2017-05-03T08:24:39.156Z,86.06
2017-05-03T08:25:40.591Z,84.72
2017-05-03T08:26:42.017Z,87.06
2017-05-03T08:27:43.452Z,83.43
2017-05-03T08:28:44.879Z,84.67
2017-05-03T08:29:46.311Z,81.71
2017-05-03T08:30:47.737Z,81.14
2017-05-03T08:31:49.165Z,79.99
2017-05-03T08:32:50.593Z,83.14
2017-05-03T08:33:52.029Z,80.19
2017-05-03T08:34:53.462Z,81.71
2017-05-03T08:35:54.894Z,83.34
2017-05-03T08:36:56.322Z,85.44
2017-05-03T08:37:57.754Z,84.23
2017-05-03T08:38:59.180Z,86.20
2017-05-03T08:40:00.610Z,86.39
2017-05-03T08:41:02.046Z,82.19
2017-05-03T08:42:03.480Z,82.09
2017-05-03T08:43:04.902Z,83.87
2017-05-03T08:44:06.331Z,86.01
2017-05-03T08:45:07.763Z,81.43
2017-05-03T08:46:09.195Z,81.04
2017-05-03T08:47:10.619Z,79.57
2017-05-03T08:48:12.050Z,81.33
2017-05-03T08:49:13.480Z,84.10
2017-05-03T08:50:14.917Z,84.20
2017-05-03T08:51:16.340Z,79.14
2017-05-03T08:52:17.794Z,80.57
2017-05-03T08:53:19.265Z,80.80
2017-05-03T08:54:20.702Z,81.37
2017-05-03T08:55:22.132Z,79.46
2017-05-03T08:56:23.583Z,80.13
2017-05-03T08:57:25.013Z,81.95
2017-05-03T08:58:26.443Z,79.56
2017-05-03T08:59:27.873Z,78.12
2017-05-03T09:00:29.323Z,76.73
2017-05-03T09:01:30.752Z,77.01
2017-05-03T09:02:32.195Z,76.77
2017-05-03T09:03:33.637Z,79.44
2017-05-03T09:04:35.099Z,78.36
2017-05-03T09:05:36.527Z,78.78
2017-05-03T09:06:37.968Z,79.16
2017-05-03T09:07:39.401Z,81.55
2017-05-03T09:08:40.839Z,80.79
2017-05-03T09:09:42.272Z,82.70
2017-05-03T09:10:43.699Z,78.39
2017-05-03T09:11:45.209Z,80.88
2017-05-03T09:12:46.641Z,78.97
2017-05-03T09:13:48.076Z,77.63
2017-05-03T09:14:49.537Z,76.57
2017-05-03T09:15:50.969Z,80.98
2017-05-03T09:16:52.398Z,81.93
2017-05-03T09:17:53.914Z,83.04
2017-05-03T09:18:55.340Z,82.22
2017-05-03T09:19:56.774Z,81.49
2017-05-03T09:20:58.203Z,78.91
2017-05-03T09:21:59.679Z,80.35
2017-05-03T09:23:01.114Z,77.95
2017-05-03T09:24:02.539Z,75.76
2017-05-03T09:25:03.970Z,80.44
2017-05-03T09:26:05.402Z,79.10
2017-05-03T09:27:06.836Z,78.91
2017-05-03T09:28:08.267Z,76.10
2017-05-03T09:29:09.743Z,76.14
2017-05-03T09:30:11.184Z,77.25
2017-05-03T09:31:12.612Z,76.57
2017-05-03T09:32:14.042Z,73.99
2017-05-03T09:33:15.469Z,74.57
2017-05-03T09:34:16.902Z,73.99
2017-05-03T09:35:18.340Z,77.82
2017-05-03T09:36:19.816Z,81.45
2017-05-03T09:37:21.250Z,81.93
2017-05-03T09:38:22.685Z,79.44
2017-05-03T09:39:24.111Z,78.68
2017-05-03T09:40:25.655Z,79.44
2017-05-03T09:41:27.097Z,79.44
2017-05-03T09:42:28.526Z,76.67
2017-05-03T09:43:29.959Z,77.63
2017-05-03T09:44:31.395Z,77.53
2017-05-03T09:45:32.831Z,76.57
2017-05-03T09:46:34.264Z,76.96
2017-05-03T09:47:35.768Z,77.06
2017-05-03T09:48:37.211Z,77.63
2017-05-03T09:49:38.671Z,75.14
2017-05-03T09:50:40.077Z,78.39
2017-05-03T09:51:41.511Z,81.36
2017-05-03T09:52:42.942Z,78.97
2017-05-03T09:53:44.371Z,81.74
2017-05-03T09:54:45.848Z,78.68
2017-05-03T09:55:47.280Z,77.69
2017-05-03T09:56:48.713Z,78.68
2017-05-03T09:57:50.149Z,80.30
2017-05-03T09:58:51.579Z,79.83
2017-05-03T09:59:53.133Z,77.92
2017-05-03T10:00:54.572Z,76.96
2017-05-03T10:01:56.006Z,77.69
2017-05-03T10:02:57.443Z,76.48
2017-05-03T10:03:58.876Z,79.54
2017-05-03T10:05:00.312Z,77.59
2017-05-03T10:06:01.787Z,76.45
2017-05-03T10:07:03.214Z,78.97
2017-05-03T10:08:04.650Z,78.39
2017-05-03T10:09:06.091Z,78.11
2017-05-03T10:10:07.525Z,78.49
2017-05-03T10:11:08.957Z,76.00
2017-05-03T10:12:10.383Z,76.39
2017-05-03T10:13:11.839Z,77.63
2017-05-03T10:14:13.345Z,76.82
2017-05-03T10:15:14.777Z,77.87
2017-05-03T10:16:16.205Z,79.50
2017-05-03T10:17:17.631Z,78.83
2017-05-03T10:18:19.088Z,79.50
2017-05-03T10:19:20.492Z,77.40
2017-05-03T10:20:21.939Z,79.02
2017-05-03T10:21:23.408Z,77.69
2017-05-03T10:22:24.839Z,79.60
2017-05-03T10:23:26.261Z,78.93
2017-05-03T10:24:27.703Z,78.64
2017-05-03T10:25:29.148Z,77.40
2017-05-03T10:26:30.580Z,77.87
2017-05-03T10:27:32.009Z,78.16
2017-05-03T10:28:33.447Z,79.79
2017-05-03T10:29:34.924Z,77.40
2017-05-03T10:30:36.367Z,79.69
2017-05-03T10:31:37.805Z,79.41
2017-05-03T10:32:39.736Z,79.22
2017-05-03T10:33:41.178Z,78.01
2017-05-03T10:34:42.615Z,76.39
2017-05-03T10:35:44.040Z,75.14
2017-05-03T10:36:45.477Z,75.43
2017-05-03T10:37:46.908Z,77.25
2017-05-03T10:38:48.338Z,76.10
2017-05-03T10:39:49.772Z,74.76
2017-05-03T10:40:51.209Z,77.44
2017-05-03T10:41:52.645Z,75.91
2017-05-03T10:42:54.069Z,76.57
2017-05-03T10:43:55.500Z,75.81
2017-05-03T10:44:56.927Z,76.48
2017-05-03T10:45:58.367Z,73.14
2017-05-03T10:46:59.795Z,74.09
2017-05-03T10:48:01.225Z,75.27
2017-05-03T10:49:02.651Z,75.27
2017-05-03T10:50:04.092Z,74.70
2017-05-03T10:51:05.515Z,75.66
2017-05-03T10:52:06.951Z,74.16
2017-05-03T10:53:08.379Z,73.79
2017-05-03T10:54:09.822Z,73.69
2017-05-03T10:55:11.264Z,71.77
2017-05-03T10:56:12.688Z,73.59
2017-05-03T10:57:14.122Z,73.54
2017-05-03T10:58:15.557Z,71.33
2017-05-03T10:59:17.007Z,72.38
2017-05-03T11:00:18.438Z,71.04
2017-05-03T11:01:19.878Z,71.37
2017-05-03T11:02:21.305Z,74.24
2017-05-03T11:03:22.735Z,75.45
2017-05-03T11:04:24.159Z,72.19
2017-05-03T11:05:25.588Z,72.09
2017-05-03T11:06:27.021Z,70.37
2017-05-03T11:07:28.456Z,71.23
2017-05-03T11:08:29.885Z,72.86
2017-05-03T11:09:31.329Z,70.56
2017-05-03T11:10:32.770Z,70.41
2017-05-03T11:11:34.201Z,72.71
2017-05-03T11:12:35.637Z,71.81
2017-05-03T11:13:37.071Z,71.04
2017-05-03T11:14:38.499Z,69.42
2017-05-03T11:15:39.932Z,68.46
2017-05-03T11:16:41.360Z,73.54
2017-05-03T11:17:42.795Z,72.00
2017-05-03T11:18:44.230Z,71.23
2017-05-03T11:19:45.664Z,71.04
2017-05-03T11:20:47.103Z,70.85
2017-05-03T11:21:48.529Z,72.09
2017-05-03T11:22:49.961Z,69.51
2017-05-03T11:23:51.402Z,73.34
2017-05-03T11:24:52.837Z,72.58
2017-05-03T11:25:54.268Z,71.33
2017-05-03T11:26:55.730Z,71.91
2017-05-03T11:27:57.188Z,71.23
2017-05-03T11:28:58.606Z,71.14
2017-05-03T11:30:00.035Z,71.52
2017-05-03T11:31:01.578Z,71.68
2017-05-03T11:32:03.073Z,71.87
2017-05-03T11:33:04.504Z,71.30
2017-05-03T11:34:05.939Z,69.51
2017-05-03T11:35:07.409Z,70.70
2017-05-03T11:36:08.844Z,69.20
2017-05-03T11:37:10.270Z,67.18
2017-05-03T11:38:11.717Z,69.68
2017-05-03T11:39:13.179Z,71.08
2017-05-03T11:40:14.610Z,68.78
2017-05-03T11:41:16.043Z,67.82
2017-05-03T11:42:17.540Z,69.83
2017-05-03T11:43:18.981Z,66.99
2017-05-03T11:44:20.414Z,65.65
2017-05-03T11:45:21.850Z,64.89
2017-05-03T11:46:23.327Z,67.57
2017-05-03T11:47:24.773Z,67.38
2017-05-03T11:48:26.198Z,65.55
2017-05-03T11:49:27.633Z,65.42
2017-05-03T11:50:29.067Z,66.89
2017-05-03T11:51:30.499Z,64.79
2017-05-03T11:52:31.924Z,64.31
2017-05-03T11:53:33.362Z,65.08
2017-05-03T11:54:34.793Z,65.62
2017-05-03T11:55:36.224Z,65.26
2017-05-03T11:56:37.655Z,68.81
2017-05-03T11:57:39.092Z,69.52
2017-05-03T11:58:40.527Z,68.56
2017-05-03T11:59:41.966Z,65.30
2017-05-03T12:00:43.421Z,63.00
2017-05-03T12:01:44.848Z,65.94
2017-05-03T12:02:46.283Z,64.34
2017-05-03T12:03:47.800Z,63.86
2017-05-03T12:04:49.241Z,64.92
2017-05-03T12:05:50.676Z,63.38
2017-05-03T12:06:52.139Z,63.32
2017-05-03T12:07:53.570Z,65.81
2017-05-03T12:08:55.048Z,66.67
2017-05-03T12:09:56.481Z,64.37
2017-05-03T12:10:57.921Z,64.98
2017-05-03T12:11:59.356Z,68.82
2017-05-03T12:13:00.791Z,67.00
2017-05-03T12:14:02.226Z,65.27
2017-05-03T12:15:03.697Z,64.79
2017-05-03T12:16:05.137Z,61.21
2017-05-03T12:17:06.569Z,60.63
2017-05-03T12:18:08.011Z,64.69
2017-05-03T12:19:09.447Z,63.12
2017-05-03T12:20:10.885Z,57.95
2017-05-03T12:21:12.313Z,62.93
2017-05-03T12:22:13.807Z,60.47
2017-05-03T12:23:15.237Z,64.66
2017-05-03T12:24:16.682Z,60.25
2017-05-03T12:25:18.115Z,61.85
2017-05-03T12:26:19.554Z,63.03
2017-05-03T12:27:21.008Z,62.45
2017-05-03T12:28:22.437Z,61.21
2017-05-03T12:29:23.875Z,62.65
2017-05-03T12:30:25.377Z,64.95
2017-05-03T12:31:26.810Z,62.07
2017-05-03T12:32:28.243Z,60.89
2017-05-03T12:33:29.678Z,62.42
2017-05-03T12:34:31.130Z,60.89
2017-05-03T12:35:32.562Z,59.00
2017-05-03T12:36:34.004Z,62.45
2017-05-03T12:37:35.441Z,60.57
2017-05-03T12:38:36.885Z,58.36
2017-05-03T12:39:38.323Z,60.85
2017-05-03T12:40:39.765Z,60.02
2017-05-03T12:41:41.255Z,65.27
2017-05-03T12:42:42.695Z,64.53
2017-05-03T12:43:44.127Z,62.61
2017-05-03T12:44:45.633Z,63.67
2017-05-03T12:45:47.069Z,59.19
2017-05-03T12:46:48.494Z,60.40
2017-05-03T12:47:49.931Z,59.44
2017-05-03T12:48:51.405Z,59.38
2017-05-03T12:49:52.809Z,58.89
2017-05-03T12:50:54.238Z,62.61
2017-05-03T12:51:55.719Z,58.74
2017-05-03T12:52:57.158Z,59.58
2017-05-03T12:53:58.583Z,57.95
2017-05-03T12:55:00.046Z,59.22
2017-05-03T12:56:01.456Z,60.75
2017-05-03T12:57:02.896Z,59.19
2017-05-03T12:58:05.092Z,61.30
2017-05-03T12:59:06.530Z,59.77
2017-05-03T13:00:07.964Z,59.29
2017-05-03T13:01:09.400Z,59.67
2017-05-03T13:02:10.835Z,57.37
2017-05-03T13:03:12.280Z,57.28
2017-05-03T13:04:13.714Z,60.05
2017-05-03T13:05:15.152Z,61.49
2017-05-03T13:06:16.585Z,62.16
2017-05-03T13:07:18.014Z,58.91
2017-05-03T13:08:19.460Z,60.82
2017-05-03T13:09:21.681Z,59.96
2017-05-03T13:10:23.127Z,59.45
2017-05-03T13:11:24.551Z,59.16